sensor_id;sensor_type;location;lat;lon;timestamp;pressure;altitude;pressure_sealevel;temperature;humidity
4586;BME280;2305;50.118;8.952;2023-05-19T00:02:11;101288.38;;;12.03;100.00
4586;BME280;2305;50.118;8.952;2023-05-19T00:04:43;101291.47;;;11.97;100.00
4586;BME280;2305;50.118;8.952;2023-05-19T00:07:16;101294.75;;;11.88;100.00
4586;BME280;2305;50.118;8.952;2023-05-19T00:09:47;101296.16;;;11.81;100.00
4586;BME280;2305;50.118;8.952;2023-05-19T00:12:17;101297.84;;;11.82;100.00
4586;BME280;2305;50.118;8.952;2023-05-19T00:14:50;101301.44;;;11.81;100.00
4586;BME280;2305;50.118;8.952;2023-05-19T00:17:19;101300.72;;;11.79;100.00
4586;BME280;2305;50.118;8.952;2023-05-19T00:19:49;101299.34;;;11.74;100.00
4586;BME280;2305;50.118;8.952;2023-05-19T00:22:18;101293.31;;;11.72;100.00
4586;BME280;2305;50.118;8.952;2023-05-19T00:24:49;101297.03;;;11.69;100.00
4586;BME280;2305;50.118;8.952;2023-05-19T00:27:25;101295.31;;;11.68;100.00
4586;BME280;2305;50.118;8.952;2023-05-19T00:29:54;101293.44;;;11.70;100.00
4586;BME280;2305;50.118;8.952;2023-05-19T00:32:23;101292.69;;;11.68;100.00
4586;BME280;2305;50.118;8.952;2023-05-19T00:34:54;101299.16;;;11.64;100.00
4586;BME280;2305;50.118;8.952;2023-05-19T00:37:23;101301.69;;;11.66;100.00
4586;BME280;2305;50.118;8.952;2023-05-19T00:39:51;101300.22;;;11.62;100.00
4586;BME280;2305;50.118;8.952;2023-05-19T00:42:20;101299.59;;;11.58;100.00
4586;BME280;2305;50.118;8.952;2023-05-19T00:44:49;101295.31;;;11.56;100.00
4586;BME280;2305;50.118;8.952;2023-05-19T00:47:18;101292.69;;;11.56;100.00
4586;BME280;2305;50.118;8.952;2023-05-19T00:49:46;101287.50;;;11.54;100.00
4586;BME280;2305;50.118;8.952;2023-05-19T00:52:16;101282.69;;;11.48;100.00
4586;BME280;2305;50.118;8.952;2023-05-19T00:54:47;101279.84;;;11.39;100.00
4586;BME280;2305;50.118;8.952;2023-05-19T00:57:17;101277.72;;;11.31;100.00
4586;BME280;2305;50.118;8.952;2023-05-19T00:59:48;101284.91;;;11.29;100.00
4586;BME280;2305;50.118;8.952;2023-05-19T01:02:18;101279.09;;;11.24;100.00
4586;BME280;2305;50.118;8.952;2023-05-19T01:04:48;101281.00;;;11.22;100.00
4586;BME280;2305;50.118;8.952;2023-05-19T01:07:19;101284.28;;;11.13;100.00
4586;BME280;2305;50.118;8.952;2023-05-19T01:09:49;101280.78;;;11.13;100.00
4586;BME280;2305;50.118;8.952;2023-05-19T01:12:17;101282.28;;;11.17;100.00
4586;BME280;2305;50.118;8.952;2023-05-19T01:14:45;101277.19;;;11.14;100.00
4586;BME280;2305;50.118;8.952;2023-05-19T01:17:20;101279.09;;;11.12;100.00
4586;BME280;2305;50.118;8.952;2023-05-19T01:19:56;101270.44;;;11.10;100.00
4586;BME280;2305;50.118;8.952;2023-05-19T01:22:55;101269.69;;;11.08;100.00
4586;BME280;2305;50.118;8.952;2023-05-19T01:25:38;101273.59;;;11.02;100.00
4586;BME280;2305;50.118;8.952;2023-05-19T01:28:40;101270.97;;;10.90;100.00
4586;BME280;2305;50.118;8.952;2023-05-19T01:31:22;101266.31;;;10.93;100.00
4586;BME280;2305;50.118;8.952;2023-05-19T01:33:56;101268.09;;;10.93;100.00
4586;BME280;2305;50.118;8.952;2023-05-19T01:36:26;101273.50;;;10.91;100.00
4586;BME280;2305;50.118;8.952;2023-05-19T01:38:57;101271.06;;;10.88;100.00
4586;BME280;2305;50.118;8.952;2023-05-19T01:41:29;101275.81;;;10.83;100.00
4586;BME280;2305;50.118;8.952;2023-05-19T01:43:58;101267.69;;;10.86;100.00
4586;BME280;2305;50.118;8.952;2023-05-19T01:46:29;101276.94;;;10.79;100.00
4586;BME280;2305;50.118;8.952;2023-05-19T01:48:58;101270.63;;;10.82;100.00
4586;BME280;2305;50.118;8.952;2023-05-19T01:51:27;101271.59;;;10.81;100.00
4586;BME280;2305;50.118;8.952;2023-05-19T01:53:56;101274.22;;;10.81;100.00
4586;BME280;2305;50.118;8.952;2023-05-19T01:56:34;101275.38;;;10.77;100.00
4586;BME280;2305;50.118;8.952;2023-05-19T01:59:14;101277.91;;;10.78;100.00
4586;BME280;2305;50.118;8.952;2023-05-19T02:01:50;101282.44;;;10.76;100.00
4586;BME280;2305;50.118;8.952;2023-05-19T02:04:29;101280.84;;;10.74;100.00
4586;BME280;2305;50.118;8.952;2023-05-19T02:07:12;101282.84;;;10.70;100.00
4586;BME280;2305;50.118;8.952;2023-05-19T02:09:50;101282.72;;;10.72;100.00
4586;BME280;2305;50.118;8.952;2023-05-19T02:12:24;101283.59;;;10.72;100.00
4586;BME280;2305;50.118;8.952;2023-05-19T02:15:00;101276.31;;;10.63;100.00
4586;BME280;2305;50.118;8.952;2023-05-19T02:17:34;101282.53;;;10.62;100.00
4586;BME280;2305;50.118;8.952;2023-05-19T02:20:04;101283.44;;;10.61;100.00
4586;BME280;2305;50.118;8.952;2023-05-19T02:22:33;101284.09;;;10.65;100.00
4586;BME280;2305;50.118;8.952;2023-05-19T02:25:06;101286.84;;;10.63;100.00
4586;BME280;2305;50.118;8.952;2023-05-19T02:27:41;101280.06;;;10.59;100.00
4586;BME280;2305;50.118;8.952;2023-05-19T02:30:12;101284.50;;;10.59;100.00
4586;BME280;2305;50.118;8.952;2023-05-19T02:32:45;101284.50;;;10.59;100.00
4586;BME280;2305;50.118;8.952;2023-05-19T02:35:14;101282.72;;;10.59;100.00
4586;BME280;2305;50.118;8.952;2023-05-19T02:37:43;101278.28;;;10.60;100.00
4586;BME280;2305;50.118;8.952;2023-05-19T02:40:13;101281.97;;;10.57;100.00
4586;BME280;2305;50.118;8.952;2023-05-19T02:42:42;101274.16;;;10.56;100.00
4586;BME280;2305;50.118;8.952;2023-05-19T02:45:12;101273.34;;;10.55;100.00
4586;BME280;2305;50.118;8.952;2023-05-19T02:47:41;101275.31;;;10.52;100.00
4586;BME280;2305;50.118;8.952;2023-05-19T02:50:10;101272.03;;;10.48;100.00
4586;BME280;2305;50.118;8.952;2023-05-19T02:52:39;101271.09;;;10.49;100.00
4586;BME280;2305;50.118;8.952;2023-05-19T02:55:08;101267.06;;;10.44;100.00
4586;BME280;2305;50.118;8.952;2023-05-19T02:57:42;101267.19;;;10.42;100.00
4586;BME280;2305;50.118;8.952;2023-05-19T03:00:12;101262.09;;;10.39;100.00
4586;BME280;2305;50.118;8.952;2023-05-19T03:02:42;101258.72;;;10.37;100.00
4586;BME280;2305;50.118;8.952;2023-05-19T03:05:14;101270.13;;;10.38;100.00
4586;BME280;2305;50.118;8.952;2023-05-19T03:07:44;101259.69;;;10.36;100.00
4586;BME280;2305;50.118;8.952;2023-05-19T03:10:13;101262.41;;;10.35;100.00
4586;BME280;2305;50.118;8.952;2023-05-19T03:12:41;101262.69;;;10.30;100.00
4586;BME280;2305;50.118;8.952;2023-05-19T03:15:10;101264.38;;;10.31;100.00
4586;BME280;2305;50.118;8.952;2023-05-19T03:17:42;101267.88;;;10.32;100.00
4586;BME280;2305;50.118;8.952;2023-05-19T03:20:11;101266.59;;;10.25;100.00
4586;BME280;2305;50.118;8.952;2023-05-19T03:22:44;101266.59;;;10.25;100.00
4586;BME280;2305;50.118;8.952;2023-05-19T03:25:12;101273.44;;;10.27;100.00
4586;BME280;2305;50.118;8.952;2023-05-19T03:27:42;101273.63;;;10.24;100.00
4586;BME280;2305;50.118;8.952;2023-05-19T03:30:12;101270.69;;;10.29;100.00
4586;BME280;2305;50.118;8.952;2023-05-19T03:32:59;101266.47;;;10.26;100.00
4586;BME280;2305;50.118;8.952;2023-05-19T03:35:31;101268.66;;;10.20;100.00
4586;BME280;2305;50.118;8.952;2023-05-19T03:38:01;101268.66;;;10.20;100.00
4586;BME280;2305;50.118;8.952;2023-05-19T03:40:29;101279.13;;;10.21;100.00
4586;BME280;2305;50.118;8.952;2023-05-19T03:43:04;101277.59;;;10.17;100.00
4586;BME280;2305;50.118;8.952;2023-05-19T03:45:40;101281.41;;;10.13;100.00
4586;BME280;2305;50.118;8.952;2023-05-19T03:48:28;101277.47;;;10.06;100.00
4586;BME280;2305;50.118;8.952;2023-05-19T03:51:15;101273.97;;;10.06;100.00
4586;BME280;2305;50.118;8.952;2023-05-19T03:53:52;101278.00;;;9.97;100.00
4586;BME280;2305;50.118;8.952;2023-05-19T03:56:22;101278.00;;;9.97;100.00
4586;BME280;2305;50.118;8.952;2023-05-19T03:58:55;101281.59;;;9.96;100.00
4586;BME280;2305;50.118;8.952;2023-05-19T04:01:24;101290.72;;;9.91;100.00
4586;BME280;2305;50.118;8.952;2023-05-19T04:03:52;101279.16;;;9.93;100.00
4586;BME280;2305;50.118;8.952;2023-05-19T04:06:22;101281.50;;;9.98;100.00
4586;BME280;2305;50.118;8.952;2023-05-19T04:09:00;101286.84;;;9.96;100.00
4586;BME280;2305;50.118;8.952;2023-05-19T04:11:29;101275.38;;;9.97;100.00
4586;BME280;2305;50.118;8.952;2023-05-19T04:13:57;101282.34;;;9.98;100.00
4586;BME280;2305;50.118;8.952;2023-05-19T04:16:28;101282.44;;;9.97;100.00
4586;BME280;2305;50.118;8.952;2023-05-19T04:18:59;101273.69;;;9.96;100.00
4586;BME280;2305;50.118;8.952;2023-05-19T04:21:28;101275.19;;;10.00;100.00
4586;BME280;2305;50.118;8.952;2023-05-19T04:23:57;101278.56;;;10.02;100.00
4586;BME280;2305;50.118;8.952;2023-05-19T04:26:27;101284.59;;;10.04;100.00
4586;BME280;2305;50.118;8.952;2023-05-19T04:28:56;101281.41;;;9.99;100.00
4586;BME280;2305;50.118;8.952;2023-05-19T04:31:26;101279.50;;;10.01;100.00
4586;BME280;2305;50.118;8.952;2023-05-19T04:33:56;101283.56;;;10.07;100.00
4586;BME280;2305;50.118;8.952;2023-05-19T04:36:28;101281.59;;;10.10;100.00
4586;BME280;2305;50.118;8.952;2023-05-19T04:39:04;101278.78;;;10.13;100.00
4586;BME280;2305;50.118;8.952;2023-05-19T04:41:39;101284.69;;;10.17;100.00
4586;BME280;2305;50.118;8.952;2023-05-19T04:44:11;101283.66;;;10.19;100.00
4586;BME280;2305;50.118;8.952;2023-05-19T04:46:46;101288.06;;;10.19;100.00
4586;BME280;2305;50.118;8.952;2023-05-19T04:49:16;101288.50;;;10.25;100.00
4586;BME280;2305;50.118;8.952;2023-05-19T04:51:45;101285.84;;;10.25;100.00
4586;BME280;2305;50.118;8.952;2023-05-19T04:54:23;101292.63;;;10.29;100.00
4586;BME280;2305;50.118;8.952;2023-05-19T04:56:52;101290.63;;;10.33;100.00
4586;BME280;2305;50.118;8.952;2023-05-19T04:59:21;101292.22;;;10.35;100.00
4586;BME280;2305;50.118;8.952;2023-05-19T05:01:50;101290.34;;;10.37;100.00
4586;BME280;2305;50.118;8.952;2023-05-19T05:04:18;101293.41;;;10.44;100.00
4586;BME280;2305;50.118;8.952;2023-05-19T05:06:47;101299.22;;;10.49;100.00
4586;BME280;2305;50.118;8.952;2023-05-19T05:09:17;101294.59;;;10.52;100.00
4586;BME280;2305;50.118;8.952;2023-05-19T05:11:50;101287.44;;;10.54;100.00
4586;BME280;2305;50.118;8.952;2023-05-19T05:14:19;101290.53;;;10.61;100.00
4586;BME280;2305;50.118;8.952;2023-05-19T05:16:50;101292.75;;;10.67;100.00
4586;BME280;2305;50.118;8.952;2023-05-19T05:19:22;101292.03;;;10.77;100.00
4586;BME280;2305;50.118;8.952;2023-05-19T05:21:53;101292.03;;;10.77;100.00
4586;BME280;2305;50.118;8.952;2023-05-19T05:24:22;101294.69;;;10.77;100.00
4586;BME280;2305;50.118;8.952;2023-05-19T05:26:56;101287.72;;;10.76;100.00
4586;BME280;2305;50.118;8.952;2023-05-19T05:29:25;101288.78;;;10.86;100.00
4586;BME280;2305;50.118;8.952;2023-05-19T05:31:54;101285.19;;;10.87;100.00
4586;BME280;2305;50.118;8.952;2023-05-19T05:34:24;101284.78;;;10.93;100.00
4586;BME280;2305;50.118;8.952;2023-05-19T05:36:52;101282.13;;;10.93;100.00
4586;BME280;2305;50.118;8.952;2023-05-19T05:39:20;101280.03;;;10.98;100.00
4586;BME280;2305;50.118;8.952;2023-05-19T05:41:49;101285.19;;;11.00;100.00
4586;BME280;2305;50.118;8.952;2023-05-19T05:44:20;101283.97;;;11.05;100.00
4586;BME280;2305;50.118;8.952;2023-05-19T05:46:49;101283.50;;;11.11;100.00
4586;BME280;2305;50.118;8.952;2023-05-19T05:49:18;101279.09;;;11.12;100.00
4586;BME280;2305;50.118;8.952;2023-05-19T05:51:47;101285.00;;;11.15;100.00
4586;BME280;2305;50.118;8.952;2023-05-19T05:54:35;101279.41;;;11.20;100.00
4586;BME280;2305;50.118;8.952;2023-05-19T05:57:07;101278.34;;;11.22;100.00
4586;BME280;2305;50.118;8.952;2023-05-19T05:59:40;101283.13;;;11.30;100.00
4586;BME280;2305;50.118;8.952;2023-05-19T06:02:11;101289.22;;;11.30;100.00
4586;BME280;2305;50.118;8.952;2023-05-19T06:04:42;101283.53;;;11.36;100.00
4586;BME280;2305;50.118;8.952;2023-05-19T06:07:10;101287.44;;;11.43;100.00
4586;BME280;2305;50.118;8.952;2023-05-19T06:09:38;101287.63;;;11.53;100.00
4586;BME280;2305;50.118;8.952;2023-05-19T06:12:09;101279.38;;;11.57;100.00
4586;BME280;2305;50.118;8.952;2023-05-19T06:14:45;101283.09;;;11.67;100.00
4586;BME280;2305;50.118;8.952;2023-05-19T06:17:36;101274.72;;;11.73;100.00
4586;BME280;2305;50.118;8.952;2023-05-19T06:20:10;101271.44;;;11.82;100.00
4586;BME280;2305;50.118;8.952;2023-05-19T06:22:40;101274.25;;;11.92;100.00
4586;BME280;2305;50.118;8.952;2023-05-19T06:25:09;101268.34;;;12.01;100.00
4586;BME280;2305;50.118;8.952;2023-05-19T06:27:37;101260.69;;;12.09;100.00
4586;BME280;2305;50.118;8.952;2023-05-19T06:30:08;101258.34;;;12.17;100.00
4586;BME280;2305;50.118;8.952;2023-05-19T06:32:49;101267.50;;;12.24;100.00
4586;BME280;2305;50.118;8.952;2023-05-19T06:35:19;101261.75;;;12.30;100.00
4586;BME280;2305;50.118;8.952;2023-05-19T06:37:51;101266.47;;;12.37;100.00
4586;BME280;2305;50.118;8.952;2023-05-19T06:40:22;101262.94;;;12.49;100.00
4586;BME280;2305;50.118;8.952;2023-05-19T06:42:50;101262.47;;;12.55;100.00
4586;BME280;2305;50.118;8.952;2023-05-19T06:45:34;101265.13;;;12.66;100.00
4586;BME280;2305;50.118;8.952;2023-05-19T06:48:04;101260.88;;;12.76;100.00
4586;BME280;2305;50.118;8.952;2023-05-19T06:50:34;101272.41;;;12.86;100.00
4586;BME280;2305;50.118;8.952;2023-05-19T06:53:03;101269.00;;;12.97;100.00
4586;BME280;2305;50.118;8.952;2023-05-19T06:55:32;101265.53;;;13.07;100.00
4586;BME280;2305;50.118;8.952;2023-05-19T06:58:15;101265.56;;;13.18;100.00
4586;BME280;2305;50.118;8.952;2023-05-19T07:00:46;101259.19;;;13.32;100.00
4586;BME280;2305;50.118;8.952;2023-05-19T07:03:17;101262.91;;;13.40;100.00
4586;BME280;2305;50.118;8.952;2023-05-19T07:05:50;101257.50;;;13.53;100.00
4586;BME280;2305;50.118;8.952;2023-05-19T07:08:19;101258.94;;;13.68;100.00
4586;BME280;2305;50.118;8.952;2023-05-19T07:10:48;101247.47;;;13.78;100.00
4586;BME280;2305;50.118;8.952;2023-05-19T07:13:16;101260.72;;;13.89;100.00
4586;BME280;2305;50.118;8.952;2023-05-19T07:15:47;101251.91;;;13.99;100.00
4586;BME280;2305;50.118;8.952;2023-05-19T07:18:18;101245.00;;;14.08;100.00
4586;BME280;2305;50.118;8.952;2023-05-19T07:20:47;101250.41;;;14.17;100.00
4586;BME280;2305;50.118;8.952;2023-05-19T07:23:15;101247.41;;;14.22;100.00
4586;BME280;2305;50.118;8.952;2023-05-19T07:25:45;101238.25;;;14.26;100.00
4586;BME280;2305;50.118;8.952;2023-05-19T07:28:14;101232.56;;;14.30;100.00
4586;BME280;2305;50.118;8.952;2023-05-19T07:30:45;101225.66;;;14.39;100.00
4586;BME280;2305;50.118;8.952;2023-05-19T07:33:16;101229.09;;;14.50;100.00
4586;BME280;2305;50.118;8.952;2023-05-19T07:35:46;101228.44;;;14.58;100.00
4586;BME280;2305;50.118;8.952;2023-05-19T07:38:18;101230.78;;;14.72;100.00
4586;BME280;2305;50.118;8.952;2023-05-19T07:40:49;101222.75;;;14.83;100.00
4586;BME280;2305;50.118;8.952;2023-05-19T07:43:17;101222.69;;;14.94;100.00
4586;BME280;2305;50.118;8.952;2023-05-19T07:45:46;101219.84;;;15.06;100.00
4586;BME280;2305;50.118;8.952;2023-05-19T07:48:14;101223.81;;;15.21;100.00
4586;BME280;2305;50.118;8.952;2023-05-19T07:50:45;101217.78;;;15.40;100.00
4586;BME280;2305;50.118;8.952;2023-05-19T07:53:14;101217.25;;;15.55;100.00
4586;BME280;2305;50.118;8.952;2023-05-19T07:55:42;101219.97;;;15.65;100.00
4586;BME280;2305;50.118;8.952;2023-05-19T07:58:13;101222.41;;;15.77;100.00
4586;BME280;2305;50.118;8.952;2023-05-19T08:00:41;101208.69;;;15.82;100.00
4586;BME280;2305;50.118;8.952;2023-05-19T08:03:12;101213.19;;;15.91;100.00
4586;BME280;2305;50.118;8.952;2023-05-19T08:05:43;101212.88;;;15.94;100.00
4586;BME280;2305;50.118;8.952;2023-05-19T08:08:15;101209.41;;;15.93;100.00
4586;BME280;2305;50.118;8.952;2023-05-19T08:10:45;101199.47;;;15.95;100.00
4586;BME280;2305;50.118;8.952;2023-05-19T08:13:13;101203.38;;;16.01;100.00
4586;BME280;2305;50.118;8.952;2023-05-19T08:15:43;101191.22;;;16.08;100.00
4586;BME280;2305;50.118;8.952;2023-05-19T08:18:17;101197.94;;;16.12;100.00
4586;BME280;2305;50.118;8.952;2023-05-19T08:20:50;101190.09;;;16.10;100.00
4586;BME280;2305;50.118;8.952;2023-05-19T08:23:20;101189.56;;;16.16;100.00
4586;BME280;2305;50.118;8.952;2023-05-19T08:25:49;101198.78;;;16.22;100.00
4586;BME280;2305;50.118;8.952;2023-05-19T08:28:20;101196.25;;;16.30;100.00
4586;BME280;2305;50.118;8.952;2023-05-19T08:30:49;101190.16;;;16.39;100.00
4586;BME280;2305;50.118;8.952;2023-05-19T08:33:20;101192.09;;;16.46;99.68
4586;BME280;2305;50.118;8.952;2023-05-19T08:35:48;101185.53;;;16.50;100.00
4586;BME280;2305;50.118;8.952;2023-05-19T08:38:20;101186.09;;;16.54;97.51
4586;BME280;2305;50.118;8.952;2023-05-19T08:40:48;101191.97;;;16.57;98.99
4586;BME280;2305;50.118;8.952;2023-05-19T08:43:21;101191.66;;;16.60;100.00
4586;BME280;2305;50.118;8.952;2023-05-19T08:45:53;101180.19;;;16.60;97.69
4586;BME280;2305;50.118;8.952;2023-05-19T08:48:22;101178.22;;;16.62;99.11
4586;BME280;2305;50.118;8.952;2023-05-19T08:51:02;101179.59;;;16.66;97.74
4586;BME280;2305;50.118;8.952;2023-05-19T08:53:39;101176.41;;;16.62;94.28
4586;BME280;2305;50.118;8.952;2023-05-19T08:56:13;101169.94;;;16.65;92.56
4586;BME280;2305;50.118;8.952;2023-05-19T08:58:48;101168.44;;;16.62;94.09
4586;BME280;2305;50.118;8.952;2023-05-19T09:01:18;101165.06;;;16.60;95.55
4586;BME280;2305;50.118;8.952;2023-05-19T09:03:48;101164.91;;;16.62;94.69
4586;BME280;2305;50.118;8.952;2023-05-19T09:06:20;101159.72;;;16.60;95.39
4586;BME280;2305;50.118;8.952;2023-05-19T09:08:54;101155.38;;;16.59;98.04
4586;BME280;2305;50.118;8.952;2023-05-19T09:11:23;101155.50;;;16.67;98.97
4586;BME280;2305;50.118;8.952;2023-05-19T09:13:54;101150.31;;;16.75;100.00
4586;BME280;2305;50.118;8.952;2023-05-19T09:16:25;101145.63;;;16.87;98.68
4586;BME280;2305;50.118;8.952;2023-05-19T09:18:56;101146.34;;;16.98;95.82
4586;BME280;2305;50.118;8.952;2023-05-19T09:21:27;101135.19;;;17.12;94.99
4586;BME280;2305;50.118;8.952;2023-05-19T09:24:03;101143.09;;;17.31;94.97
4586;BME280;2305;50.118;8.952;2023-05-19T09:26:37;101139.81;;;17.47;93.49
4586;BME280;2305;50.118;8.952;2023-05-19T09:29:12;101133.06;;;17.70;91.67
4586;BME280;2305;50.118;8.952;2023-05-19T09:31:48;101124.94;;;17.89;86.59
4586;BME280;2305;50.118;8.952;2023-05-19T09:34:21;101122.47;;;18.13;86.49
4586;BME280;2305;50.118;8.952;2023-05-19T09:36:55;101133.94;;;18.23;87.05
4586;BME280;2305;50.118;8.952;2023-05-19T09:39:30;101120.94;;;18.28;85.56
4586;BME280;2305;50.118;8.952;2023-05-19T09:42:03;101123.16;;;18.32;85.02
4586;BME280;2305;50.118;8.952;2023-05-19T09:44:35;101118.75;;;18.41;85.18
4586;BME280;2305;50.118;8.952;2023-05-19T09:47:08;101114.22;;;18.59;86.17
4586;BME280;2305;50.118;8.952;2023-05-19T09:49:45;101112.53;;;18.83;86.40
4586;BME280;2305;50.118;8.952;2023-05-19T09:52:16;101097.63;;;19.06;83.70
4586;BME280;2305;50.118;8.952;2023-05-19T09:54:47;101095.56;;;19.25;82.91
4586;BME280;2305;50.118;8.952;2023-05-19T09:57:17;101088.94;;;19.45;83.14
4586;BME280;2305;50.118;8.952;2023-05-19T09:59:54;101090.63;;;19.62;80.21
4586;BME280;2305;50.118;8.952;2023-05-19T10:02:27;101090.84;;;19.77;76.70
4586;BME280;2305;50.118;8.952;2023-05-19T10:05:00;101095.53;;;19.83;75.68
4586;BME280;2305;50.118;8.952;2023-05-19T10:07:31;101094.38;;;19.93;75.46
4586;BME280;2305;50.118;8.952;2023-05-19T10:10:08;101086.84;;;19.97;74.45
4586;BME280;2305;50.118;8.952;2023-05-19T10:12:38;101081.66;;;19.95;73.81
4586;BME280;2305;50.118;8.952;2023-05-19T10:15:11;101084.84;;;19.99;74.68
4586;BME280;2305;50.118;8.952;2023-05-19T10:17:43;101085.34;;;20.02;75.62
4586;BME280;2305;50.118;8.952;2023-05-19T10:20:14;101079.81;;;19.80;67.43
4586;BME280;2305;50.118;8.952;2023-05-19T10:22:46;101073.59;;;19.63;71.36
4586;BME280;2305;50.118;8.952;2023-05-19T10:25:16;101079.28;;;19.68;70.57
4586;BME280;2305;50.118;8.952;2023-05-19T10:27:53;101075.63;;;19.77;70.98
4586;BME280;2305;50.118;8.952;2023-05-19T10:30:26;101063.75;;;19.80;69.10
4586;BME280;2305;50.118;8.952;2023-05-19T10:32:59;101067.59;;;19.85;69.92
4586;BME280;2305;50.118;8.952;2023-05-19T10:35:51;101057.75;;;19.94;70.29
4586;BME280;2305;50.118;8.952;2023-05-19T10:38:34;101063.94;;;20.02;71.26
4586;BME280;2305;50.118;8.952;2023-05-19T10:41:10;101061.25;;;20.02;71.68
4586;BME280;2305;50.118;8.952;2023-05-19T10:43:52;101058.28;;;20.05;69.61
4586;BME280;2305;50.118;8.952;2023-05-19T10:46:25;101048.56;;;20.20;70.27
4586;BME280;2305;50.118;8.952;2023-05-19T10:48:54;101048.88;;;20.33;70.61
4586;BME280;2305;50.118;8.952;2023-05-19T10:51:27;101041.50;;;20.51;70.20
4586;BME280;2305;50.118;8.952;2023-05-19T10:53:57;101040.09;;;20.71;67.98
4586;BME280;2305;50.118;8.952;2023-05-19T10:56:32;101045.56;;;20.94;68.13
4586;BME280;2305;50.118;8.952;2023-05-19T10:59:02;101029.22;;;21.11;65.29
4586;BME280;2305;50.118;8.952;2023-05-19T11:01:33;101030.47;;;21.31;64.67
4586;BME280;2305;50.118;8.952;2023-05-19T11:04:05;101022.06;;;21.57;65.44
4586;BME280;2305;50.118;8.952;2023-05-19T11:06:35;101033.41;;;21.75;61.94
4586;BME280;2305;50.118;8.952;2023-05-19T11:09:13;101032.63;;;21.89;62.29
4586;BME280;2305;50.118;8.952;2023-05-19T11:11:45;101031.91;;;22.09;62.24
4586;BME280;2305;50.118;8.952;2023-05-19T11:14:17;101029.16;;;22.17;59.09
4586;BME280;2305;50.118;8.952;2023-05-19T11:16:47;101034.34;;;22.19;60.12
4586;BME280;2305;50.118;8.952;2023-05-19T11:19:17;101035.16;;;22.19;58.57
4586;BME280;2305;50.118;8.952;2023-05-19T11:21:47;101034.44;;;22.11;56.44
4586;BME280;2305;50.118;8.952;2023-05-19T11:24:36;101038.72;;;21.97;57.83
4586;BME280;2305;50.118;8.952;2023-05-19T11:27:28;101041.88;;;22.01;57.67
4586;BME280;2305;50.118;8.952;2023-05-19T11:29:58;101039.59;;;22.12;58.27
4586;BME280;2305;50.118;8.952;2023-05-19T11:32:29;101041.47;;;22.12;58.68
4586;BME280;2305;50.118;8.952;2023-05-19T11:34:59;101033.34;;;21.97;58.10
4586;BME280;2305;50.118;8.952;2023-05-19T11:37:30;101033.03;;;22.15;57.04
4586;BME280;2305;50.118;8.952;2023-05-19T11:40:00;101041.28;;;22.13;57.80
4586;BME280;2305;50.118;8.952;2023-05-19T11:42:34;101042.72;;;22.01;57.63
4586;BME280;2305;50.118;8.952;2023-05-19T11:45:04;101039.25;;;22.15;60.10
4586;BME280;2305;50.118;8.952;2023-05-19T11:47:36;101045.38;;;22.24;59.28
4586;BME280;2305;50.118;8.952;2023-05-19T11:50:27;101026.41;;;22.40;59.52
4586;BME280;2305;50.118;8.952;2023-05-19T11:52:55;101017.09;;;22.50;59.90
4586;BME280;2305;50.118;8.952;2023-05-19T11:55:27;101017.38;;;22.55;62.57
4586;BME280;2305;50.118;8.952;2023-05-19T11:57:57;101012.38;;;22.67;60.25
4586;BME280;2305;50.118;8.952;2023-05-19T12:00:33;101009.50;;;22.54;54.66
4586;BME280;2305;50.118;8.952;2023-05-19T12:03:03;101005.81;;;22.55;61.81
4586;BME280;2305;50.118;8.952;2023-05-19T12:05:35;101007.72;;;22.75;62.01
4586;BME280;2305;50.118;8.952;2023-05-19T12:08:09;101003.16;;;22.90;57.63
4586;BME280;2305;50.118;8.952;2023-05-19T12:10:38;101009.38;;;22.91;58.25
4586;BME280;2305;50.118;8.952;2023-05-19T12:13:11;101005.59;;;22.85;54.63
4586;BME280;2305;50.118;8.952;2023-05-19T12:15:39;101014.13;;;22.89;54.01
4586;BME280;2305;50.118;8.952;2023-05-19T12:18:08;101013.00;;;22.98;56.47
4586;BME280;2305;50.118;8.952;2023-05-19T12:20:36;101006.56;;;23.28;56.74
4586;BME280;2305;50.118;8.952;2023-05-19T12:23:04;101007.66;;;23.54;57.42
4586;BME280;2305;50.118;8.952;2023-05-19T12:25:33;101004.47;;;23.65;53.70
4586;BME280;2305;50.118;8.952;2023-05-19T12:28:02;101005.63;;;23.77;51.44
4586;BME280;2305;50.118;8.952;2023-05-19T12:30:34;101000.91;;;23.86;54.21
4586;BME280;2305;50.118;8.952;2023-05-19T12:33:03;101002.06;;;23.91;55.90
4586;BME280;2305;50.118;8.952;2023-05-19T12:35:31;100997.41;;;23.85;53.72
4586;BME280;2305;50.118;8.952;2023-05-19T12:38:03;100999.00;;;23.80;49.55
4586;BME280;2305;50.118;8.952;2023-05-19T12:40:32;100997.78;;;23.82;50.13
4586;BME280;2305;50.118;8.952;2023-05-19T12:43:04;100991.47;;;23.90;51.29
4586;BME280;2305;50.118;8.952;2023-05-19T12:45:34;100993.72;;;23.86;50.90
4586;BME280;2305;50.118;8.952;2023-05-19T12:48:11;100991.50;;;23.75;50.79
4586;BME280;2305;50.118;8.952;2023-05-19T12:50:42;100986.03;;;23.62;51.78
4586;BME280;2305;50.118;8.952;2023-05-19T12:53:11;100994.88;;;23.56;53.95
4586;BME280;2305;50.118;8.952;2023-05-19T12:55:40;100990.25;;;23.50;53.04
4586;BME280;2305;50.118;8.952;2023-05-19T12:58:10;100985.50;;;23.52;53.54
4586;BME280;2305;50.118;8.952;2023-05-19T13:00:43;100976.47;;;23.60;53.06
4586;BME280;2305;50.118;8.952;2023-05-19T13:03:14;100974.97;;;23.78;55.12
4586;BME280;2305;50.118;8.952;2023-05-19T13:05:44;100976.13;;;23.90;53.81
4586;BME280;2305;50.118;8.952;2023-05-19T13:08:15;100975.34;;;23.96;52.67
4586;BME280;2305;50.118;8.952;2023-05-19T13:10:47;100973.09;;;24.00;51.80
4586;BME280;2305;50.118;8.952;2023-05-19T13:13:17;100967.88;;;23.71;48.46
4586;BME280;2305;50.118;8.952;2023-05-19T13:15:47;100973.84;;;23.66;49.24
4586;BME280;2305;50.118;8.952;2023-05-19T13:18:15;100966.03;;;23.71;50.96
4586;BME280;2305;50.118;8.952;2023-05-19T13:20:47;100958.88;;;24.06;51.97
4586;BME280;2305;50.118;8.952;2023-05-19T13:23:17;100955.28;;;24.26;50.14
4586;BME280;2305;50.118;8.952;2023-05-19T13:25:45;100961.75;;;24.32;48.07
4586;BME280;2305;50.118;8.952;2023-05-19T13:28:14;100947.31;;;24.12;47.03
4586;BME280;2305;50.118;8.952;2023-05-19T13:30:46;100945.59;;;23.83;48.10